createdAt,value
2019-02-04T00:02:12.192Z,8.13
2019-02-04T00:04:42.564Z,8.33
2019-02-04T00:07:13.342Z,7.47
2019-02-04T00:09:43.819Z,7.87
2019-02-04T00:12:14.151Z,8.23
2019-02-04T00:14:44.522Z,8.50
2019-02-04T00:17:14.932Z,7.00
2019-02-04T00:19:45.309Z,7.87
2019-02-04T00:22:15.919Z,7.30
2019-02-04T00:24:46.341Z,8.37
2019-02-04T00:27:16.767Z,8.57
2019-02-04T00:29:47.235Z,7.77
2019-02-04T00:32:17.648Z,7.50
2019-02-04T00:34:47.856Z,8.23
2019-02-04T00:37:18.179Z,8.23
2019-02-04T00:39:48.619Z,7.83
2019-02-04T00:42:19.035Z,8.33
2019-02-04T00:44:49.479Z,7.40
2019-02-04T00:47:19.899Z,7.60
2019-02-04T00:49:50.321Z,6.47
2019-02-04T00:52:20.752Z,6.97
2019-02-04T00:54:51.173Z,7.07
2019-02-04T00:57:21.617Z,6.80
2019-02-04T00:59:52.028Z,7.10
2019-02-04T01:02:22.780Z,7.00
2019-02-04T01:04:53.201Z,7.30
2019-02-04T01:07:23.652Z,6.80
2019-02-04T01:09:54.063Z,6.80
2019-02-04T01:12:24.515Z,6.67
2019-02-04T01:14:55.240Z,6.27
2019-02-04T01:17:25.667Z,6.60
2019-02-04T01:19:56.118Z,6.60
2019-02-04T01:22:26.528Z,5.93
2019-02-04T01:24:56.943Z,5.90
2019-02-04T01:27:27.559Z,6.33
2019-02-04T01:29:57.896Z,6.10
2019-02-04T01:32:28.652Z,5.97
2019-02-04T01:34:59.009Z,6.23
2019-02-04T01:37:29.427Z,6.33
2019-02-04T01:39:59.832Z,5.97
2019-02-04T01:42:30.187Z,5.93
2019-02-04T01:45:00.587Z,5.67
2019-02-04T01:47:31.029Z,6.33
2019-02-04T01:50:01.465Z,6.03
2019-02-04T01:52:31.898Z,6.33
2019-02-04T01:55:02.307Z,5.87
2019-02-04T01:57:32.799Z,6.33
2019-02-04T02:00:03.135Z,6.37
2019-02-04T02:02:33.871Z,5.47
2019-02-04T02:05:04.608Z,6.37
2019-02-04T02:07:35.383Z,4.57
2019-02-04T02:10:06.784Z,5.00
2019-02-04T02:12:36.543Z,6.10
2019-02-04T02:15:07.125Z,5.40
2019-02-04T02:17:36.883Z,5.50
2019-02-04T02:20:08.231Z,4.93
2019-02-04T02:22:38.621Z,4.67
2019-02-04T02:25:09.107Z,5.20
2019-02-04T02:27:39.515Z,4.80
2019-02-04T02:30:13.691Z,4.63
2019-02-04T02:32:44.287Z,4.67
2019-02-04T02:35:14.727Z,4.70
2019-02-04T02:37:45.139Z,5.50
2019-02-04T02:40:19.278Z,5.03
2019-02-04T02:42:49.700Z,4.87
2019-02-04T02:45:20.399Z,5.70
2019-02-04T02:47:51.912Z,4.90
2019-02-04T02:50:22.411Z,5.10
2019-02-04T02:52:52.897Z,5.27
2019-02-04T02:55:23.253Z,4.83
2019-02-04T02:57:53.913Z,4.67
2019-02-04T03:00:27.007Z,5.30
2019-02-04T03:02:57.414Z,5.27
2019-02-04T03:05:27.827Z,4.77
2019-02-04T03:07:58.229Z,4.80
2019-02-04T03:10:31.370Z,4.80
2019-02-04T03:13:01.980Z,5.03
2019-02-04T03:15:32.379Z,4.43
2019-02-04T03:18:02.809Z,4.50
2019-02-04T03:20:33.208Z,4.47
2019-02-04T03:23:03.639Z,4.13
2019-02-04T03:25:33.972Z,4.40
2019-02-04T03:28:04.416Z,5.00
2019-02-04T03:30:35.791Z,4.77
2019-02-04T03:33:06.250Z,4.20
2019-02-04T03:35:36.640Z,4.60
2019-02-04T03:38:07.076Z,4.50
2019-02-04T03:40:37.475Z,4.70
2019-02-04T03:43:07.925Z,4.13
2019-02-04T03:45:37.688Z,5.17
2019-02-04T03:48:09.582Z,4.63
2019-02-04T03:50:40.221Z,5.40
2019-02-04T03:53:10.631Z,4.27
2019-02-04T03:55:40.959Z,4.33
2019-02-04T03:58:11.375Z,3.40
2019-02-04T04:00:41.792Z,3.67
2019-02-04T04:03:12.583Z,4.07
2019-02-04T04:05:42.968Z,4.40
2019-02-04T04:08:13.372Z,3.30
2019-02-04T04:10:43.856Z,3.83
2019-02-04T04:13:14.256Z,2.77
2019-02-04T04:15:46.237Z,3.83
2019-02-04T04:18:16.681Z,3.83
2019-02-04T04:20:47.088Z,3.60
2019-02-04T04:23:17.531Z,3.57
2019-02-04T04:25:47.932Z,3.50
2019-02-04T04:28:18.340Z,4.37
2019-02-04T04:30:48.755Z,6.60
2019-02-04T04:33:19.163Z,4.77
2019-02-04T04:35:49.646Z,8.17
2019-02-04T04:38:19.983Z,4.23
2019-02-04T04:40:50.418Z,6.33
2019-02-04T04:43:20.812Z,5.17
2019-02-04T04:45:51.227Z,7.23
2019-02-04T04:48:26.755Z,6.13
2019-02-04T04:50:53.027Z,6.77
2019-02-04T04:53:23.299Z,5.37
2019-02-04T04:55:54.988Z,5.53
2019-02-04T04:58:25.419Z,5.37
2019-02-04T05:00:55.826Z,4.93
2019-02-04T05:03:26.307Z,6.00
2019-02-04T05:05:56.776Z,4.67
2019-02-04T05:08:27.583Z,4.83
2019-02-04T05:10:59.029Z,6.43
2019-02-04T05:13:29.453Z,12.97
2019-02-04T05:15:59.895Z,5.40
2019-02-04T05:18:37.779Z,8.27
2019-02-04T05:21:02.351Z,12.30
2019-02-04T05:23:32.763Z,5.80
2019-02-04T05:26:03.175Z,5.37
2019-02-04T05:28:33.561Z,4.63
2019-02-04T05:31:04.004Z,4.90
2019-02-04T05:33:34.444Z,4.40
2019-02-04T05:36:04.955Z,3.77
2019-02-04T05:38:35.401Z,4.43
2019-02-04T05:41:05.815Z,4.37
2019-02-04T05:43:36.268Z,5.13
2019-02-04T05:46:06.677Z,4.73
2019-02-04T05:48:37.119Z,4.73
2019-02-04T05:51:07.522Z,3.57
2019-02-04T05:53:37.936Z,3.90
2019-02-04T05:56:08.349Z,4.37
2019-02-04T05:58:38.755Z,4.57
2019-02-04T06:01:09.396Z,5.40
2019-02-04T06:03:39.167Z,5.00
2019-02-04T06:06:09.487Z,5.37
2019-02-04T06:08:40.095Z,4.30
2019-02-04T06:11:09.939Z,5.33
2019-02-04T06:13:39.607Z,5.23
2019-02-04T06:16:09.876Z,5.17
2019-02-04T06:18:39.651Z,5.40
2019-02-04T06:21:10.007Z,5.80
2019-02-04T06:23:39.776Z,6.13
2019-02-04T06:26:10.162Z,5.63
2019-02-04T06:28:40.996Z,5.77
2019-02-04T06:31:11.453Z,5.87
2019-02-04T06:33:41.872Z,5.63
2019-02-04T06:36:11.679Z,5.00
2019-02-04T06:38:42.117Z,4.63
2019-02-04T06:41:12.935Z,4.47
2019-02-04T06:43:43.751Z,4.87
2019-02-04T06:46:14.192Z,5.13
2019-02-04T06:48:44.676Z,5.40
2019-02-04T06:51:15.107Z,5.63
2019-02-04T06:53:45.863Z,5.00
2019-02-04T06:56:15.555Z,6.90
2019-02-04T06:58:45.888Z,6.23
2019-02-04T07:01:16.224Z,8.40
2019-02-04T07:03:46.588Z,5.50
2019-02-04T07:06:17.026Z,5.50
2019-02-04T07:08:47.800Z,6.63
2019-02-04T07:11:18.237Z,7.83
2019-02-04T07:13:48.711Z,7.70
2019-02-04T07:16:19.056Z,7.97
2019-02-04T07:18:49.524Z,7.57
2019-02-04T07:21:21.011Z,7.90
2019-02-04T07:23:51.755Z,7.60
2019-02-04T07:26:22.204Z,6.80
2019-02-04T07:28:51.985Z,7.20
2019-02-04T07:31:21.771Z,7.73
2019-02-04T07:33:51.449Z,7.17
2019-02-04T07:36:21.992Z,7.97
2019-02-04T07:38:51.773Z,6.77
2019-02-04T07:41:21.504Z,7.00
2019-02-04T07:43:53.222Z,6.77
2019-02-04T07:46:25.065Z,7.60
2019-02-04T07:48:56.796Z,7.40
2019-02-04T07:51:27.227Z,8.43
2019-02-04T07:53:57.689Z,8.57
2019-02-04T07:56:27.499Z,8.40
2019-02-04T07:58:57.183Z,7.63
2019-02-04T08:01:27.554Z,7.50
2019-02-04T08:03:58.021Z,7.53
2019-02-04T08:06:28.480Z,7.93
2019-02-04T08:08:58.268Z,8.43
2019-02-04T08:11:28.571Z,11.67
2019-02-04T08:13:58.471Z,28.03
2019-02-04T08:16:29.468Z,21.50
2019-02-04T08:19:00.120Z,13.87
2019-02-04T08:21:30.524Z,12.87
2019-02-04T08:24:00.989Z,12.00
2019-02-04T08:26:31.463Z,11.77
2019-02-04T08:29:03.109Z,12.27
2019-02-04T08:31:32.875Z,10.90
2019-02-04T08:34:02.600Z,10.73
2019-02-04T08:36:43.430Z,10.87
2019-02-04T08:39:08.129Z,11.57
2019-02-04T08:41:38.556Z,11.03
2019-02-04T08:44:09.032Z,11.20
2019-02-04T08:46:39.504Z,9.90
2019-02-04T08:49:10.048Z,11.27
2019-02-04T08:51:40.464Z,11.20
2019-02-04T08:54:11.500Z,12.77
2019-02-04T08:56:43.346Z,11.00
2019-02-04T08:59:13.232Z,12.33
2019-02-04T09:01:43.621Z,10.40
2019-02-04T09:04:14.112Z,15.77
2019-02-04T09:06:44.560Z,12.50
2019-02-04T09:09:15.991Z,9.13
2019-02-04T09:11:46.912Z,10.43
2019-02-04T09:14:17.376Z,8.90
2019-02-04T09:16:47.848Z,8.80
2019-02-04T09:19:18.608Z,7.00
2019-02-04T09:21:49.095Z,6.57
2019-02-04T09:24:19.532Z,5.80
2019-02-04T09:26:49.975Z,5.57
2019-02-04T09:29:20.407Z,6.03
2019-02-04T09:31:50.828Z,6.63
2019-02-04T09:34:21.570Z,6.57
2019-02-04T09:36:53.139Z,6.63
2019-02-04T09:39:23.716Z,5.30
2019-02-04T09:41:58.487Z,6.13
2019-02-04T09:44:28.884Z,6.03
2019-02-04T09:46:59.304Z,5.77
2019-02-04T09:49:29.773Z,6.87
2019-02-04T09:52:00.760Z,8.13
2019-02-04T09:54:31.197Z,3.50
2019-02-04T09:57:00.976Z,3.67
2019-02-04T09:59:31.376Z,4.07
2019-02-04T10:02:01.155Z,4.90
2019-02-04T10:04:31.503Z,9.00
2019-02-04T10:07:03.341Z,3.20
2019-02-04T10:09:33.948Z,3.87
2019-02-04T10:12:04.518Z,5.33
2019-02-04T10:14:35.377Z,4.93
2019-02-04T10:17:05.724Z,5.37
2019-02-04T10:19:38.086Z,5.07
2019-02-04T10:22:08.638Z,6.83
2019-02-04T10:24:39.123Z,5.40
2019-02-04T10:27:08.985Z,4.63
2019-02-04T10:29:39.324Z,5.77
2019-02-04T10:32:10.404Z,5.77
2019-02-04T10:34:40.921Z,7.33
2019-02-04T10:37:10.919Z,7.07
2019-02-04T10:39:41.395Z,11.27
2019-02-04T10:42:12.964Z,10.00
2019-02-04T10:44:44.112Z,24.23
2019-02-04T10:47:15.032Z,90.27
2019-02-04T10:49:44.966Z,10.30
2019-02-04T10:52:15.108Z,8.73
2019-02-04T10:54:45.007Z,9.13
2019-02-04T10:57:16.835Z,7.83
2019-02-04T10:59:47.505Z,7.27
2019-02-04T11:02:17.805Z,6.93
2019-02-04T11:04:50.274Z,6.83
2019-02-04T11:07:20.687Z,6.77
2019-02-04T11:09:51.132Z,7.23
2019-02-04T11:12:21.703Z,11.93
2019-02-04T11:14:53.712Z,20.00
2019-02-04T11:17:24.225Z,14.47
2019-02-04T11:19:54.840Z,10.97
2019-02-04T11:22:24.706Z,8.60
2019-02-04T11:24:54.840Z,7.93
2019-02-04T11:27:24.557Z,8.10
2019-02-04T11:29:54.543Z,7.93
2019-02-04T11:32:24.372Z,7.90
2019-02-04T11:34:54.114Z,8.23
2019-02-04T11:37:24.484Z,8.27
2019-02-04T11:39:54.380Z,8.10
2019-02-04T11:42:24.736Z,10.10
2019-02-04T11:44:55.163Z,8.60
2019-02-04T11:47:25.596Z,8.23
2019-02-04T11:49:55.999Z,6.83
2019-02-04T11:52:26.655Z,7.47
2019-02-04T11:54:57.089Z,7.20
2019-02-04T11:57:27.475Z,7.40
2019-02-04T11:59:57.923Z,8.10
2019-02-04T12:02:34.597Z,7.87
2019-02-04T12:05:00.447Z,6.77
2019-02-04T12:07:30.849Z,7.30
2019-02-04T12:10:01.313Z,7.53
2019-02-04T12:12:31.762Z,7.53
2019-02-04T12:15:02.411Z,8.40
2019-02-04T12:17:32.932Z,8.57
2019-02-04T12:20:05.911Z,8.63
2019-02-04T12:22:35.704Z,10.53
2019-02-04T12:25:06.141Z,10.57
2019-02-04T12:27:36.552Z,10.40
2019-02-04T12:30:20.635Z,10.53
2019-02-04T12:32:51.700Z,9.33
2019-02-04T12:35:40.473Z,8.47
2019-02-04T12:38:11.517Z,8.30
2019-02-04T12:40:42.275Z,8.77
2019-02-04T12:43:12.973Z,9.57
2019-02-04T12:45:44.428Z,8.13
2019-02-04T12:48:14.404Z,8.13
2019-02-04T12:50:44.835Z,8.13
2019-02-04T12:53:17.135Z,7.60
2019-02-04T12:55:48.935Z,8.97
2019-02-04T12:58:19.383Z,8.90
2019-02-04T13:00:49.811Z,9.50
2019-02-04T13:03:20.151Z,9.60
2019-02-04T13:05:53.208Z,9.37
2019-02-04T13:08:23.615Z,9.93
2019-02-04T13:10:55.760Z,12.70
2019-02-04T13:13:25.551Z,14.73
2019-02-04T13:15:55.932Z,17.33
2019-02-04T13:18:26.682Z,13.23
2019-02-04T13:21:01.128Z,15.73
2019-02-04T13:23:31.584Z,39.53
2019-02-04T13:26:02.032Z,15.70
2019-02-04T13:28:32.571Z,15.73
2019-02-04T13:31:03.323Z,13.90
2019-02-04T13:33:33.808Z,13.83
2019-02-04T13:36:04.941Z,12.17
2019-02-04T13:38:35.428Z,14.40
2019-02-04T13:41:08.055Z,13.97
2019-02-04T13:43:38.299Z,12.93
2019-02-04T13:46:08.796Z,12.07
2019-02-04T13:48:39.382Z,13.40
2019-02-04T13:51:09.852Z,13.50
2019-02-04T13:53:40.348Z,11.50
2019-02-04T13:56:11.084Z,11.50
2019-02-04T13:58:41.521Z,11.87
2019-02-04T14:01:11.415Z,12.87
2019-02-04T14:03:41.764Z,11.00
2019-02-04T14:06:12.228Z,11.60
2019-02-04T14:08:42.774Z,10.53
2019-02-04T14:11:13.236Z,10.87
2019-02-04T14:13:43.679Z,10.20
2019-02-04T14:16:15.081Z,10.17
2019-02-04T14:18:46.971Z,11.40
2019-02-04T14:21:17.428Z,11.33
2019-02-04T14:23:47.856Z,11.10
2019-02-04T14:26:18.696Z,10.97
2019-02-04T14:28:49.168Z,9.87
2019-02-04T14:31:19.564Z,11.63
2019-02-04T14:33:50.354Z,12.43
2019-02-04T14:36:20.767Z,13.00
2019-02-04T14:38:51.243Z,13.40
2019-02-04T14:41:24.052Z,14.53
2019-02-04T14:44:06.776Z,17.97
2019-02-04T14:47:11.244Z,16.03
2019-02-04T14:50:28.603Z,16.70
2019-02-04T14:53:02.171Z,16.20
2019-02-04T14:56:28.536Z,16.97
2019-02-04T14:59:10.112Z,18.30
2019-02-04T15:02:12.491Z,15.07
2019-02-04T15:04:59.019Z,15.00
2019-02-04T15:07:53.455Z,14.20
2019-02-04T15:10:51.056Z,13.53
2019-02-04T15:13:56.035Z,13.87
2019-02-04T15:16:40.551Z,13.23
2019-02-04T15:19:43.192Z,15.93
2019-02-04T15:22:55.595Z,14.17
2019-02-04T15:26:05.852Z,14.23
2019-02-04T15:29:10.544Z,13.80
2019-02-04T15:32:18.115Z,18.03
2019-02-04T15:34:50.575Z,13.90
2019-02-04T15:37:45.819Z,14.33
2019-02-04T15:40:38.913Z,14.60
2019-02-04T15:43:46.175Z,13.77
2019-02-04T15:46:54.212Z,13.50
2019-02-04T15:50:01.380Z,12.67
2019-02-04T15:52:31.916Z,13.03
2019-02-04T15:55:03.195Z,13.70
2019-02-04T15:57:33.552Z,13.53
2019-02-04T16:00:04.795Z,14.40
2019-02-04T16:02:34.611Z,13.47
2019-02-04T16:05:05.614Z,16.03
2019-02-04T16:07:36.172Z,13.77
2019-02-04T16:10:09.363Z,14.23
2019-02-04T16:12:41.349Z,13.20
2019-02-04T16:15:11.860Z,13.23
2019-02-04T16:17:42.446Z,13.33
2019-02-04T16:20:14.108Z,13.83
2019-02-04T16:22:44.622Z,12.40
2019-02-04T16:25:15.736Z,14.90
2019-02-04T16:27:46.301Z,13.70
2019-02-04T16:30:19.061Z,14.93
2019-02-04T16:32:48.972Z,13.80
2019-02-04T16:35:20.131Z,12.47
2019-02-04T16:37:51.276Z,11.87
2019-02-04T16:40:22.661Z,12.07
2019-02-04T16:42:53.236Z,12.60
2019-02-04T16:45:24.004Z,12.23
2019-02-04T16:47:54.741Z,13.47
2019-02-04T16:50:26.140Z,14.10
2019-02-04T16:52:56.673Z,15.07
2019-02-04T16:55:27.344Z,15.53
2019-02-04T16:57:58.726Z,17.00
2019-02-04T17:00:31.187Z,14.80
2019-02-04T17:03:01.744Z,15.30
2019-02-04T17:05:32.289Z,19.70
2019-02-04T17:08:02.895Z,18.07
2019-02-04T17:10:33.248Z,11.97
2019-02-04T17:13:04.366Z,12.77
2019-02-04T17:15:35.136Z,23.53
2019-02-04T17:18:05.807Z,14.90
2019-02-04T17:20:36.844Z,14.30
2019-02-04T17:23:07.574Z,12.00
2019-02-04T17:25:38.093Z,11.40
2019-02-04T17:28:09.151Z,11.20
2019-02-04T17:30:39.563Z,9.90
2019-02-04T17:33:10.114Z,14.50
2019-02-04T17:35:40.591Z,14.43
2019-02-04T17:38:11.079Z,10.13
2019-02-04T17:40:41.898Z,11.50
2019-02-04T17:43:12.456Z,10.53
2019-02-04T17:45:42.485Z,12.70
2019-02-04T17:48:13.023Z,13.83
2019-02-04T17:50:43.865Z,15.27
2019-02-04T17:53:14.280Z,14.20
2019-02-04T17:55:44.719Z,11.53
2019-02-04T17:58:14.484Z,12.63
2019-02-04T18:00:49.783Z,13.13
2019-02-04T18:03:20.299Z,14.20
2019-02-04T18:05:50.498Z,82.67
2019-02-04T18:08:20.835Z,33.53
2019-02-04T18:10:51.293Z,15.63
2019-02-04T18:13:21.703Z,17.30
2019-02-04T18:15:51.503Z,26.47
2019-02-04T18:18:22.903Z,19.40
2019-02-04T18:20:53.639Z,25.73
2019-02-04T18:23:24.015Z,16.47
2019-02-04T18:25:53.789Z,14.80
2019-02-04T18:28:24.234Z,43.57
2019-02-04T18:30:54.831Z,17.17
2019-02-04T18:33:25.266Z,20.30
2019-02-04T18:35:55.671Z,18.23
2019-02-04T18:38:26.402Z,13.97
2019-02-04T18:40:57.095Z,15.50
2019-02-04T18:43:27.548Z,16.97
2019-02-04T18:46:00.369Z,14.60
2019-02-04T18:48:33.826Z,15.23
2019-02-04T18:51:05.832Z,18.73
2019-02-04T18:53:37.491Z,14.17
2019-02-04T18:56:10.867Z,11.63
2019-02-04T18:58:43.362Z,10.93
2019-02-04T19:01:15.112Z,10.93
2019-02-04T19:03:48.282Z,11.63
2019-02-04T19:06:21.632Z,12.47
2019-02-04T19:08:53.267Z,10.33
2019-02-04T19:11:23.686Z,10.70
2019-02-04T19:13:53.468Z,11.40
2019-02-04T19:16:24.179Z,10.07
2019-02-04T19:18:54.555Z,10.47
2019-02-04T19:21:25.267Z,10.70
2019-02-04T19:23:55.670Z,10.60
2019-02-04T19:26:26.088Z,11.10
2019-02-04T19:28:56.536Z,10.27
2019-02-04T19:31:31.351Z,10.60
2019-02-04T19:34:01.701Z,10.70
2019-02-04T19:36:34.313Z,11.03
2019-02-04T19:39:06.515Z,11.57
2019-02-04T19:41:36.927Z,10.17
2019-02-04T19:44:07.458Z,12.17
2019-02-04T19:46:39.030Z,12.87
2019-02-04T19:49:09.379Z,11.87
2019-02-04T19:51:39.811Z,12.40
2019-02-04T19:54:20.979Z,11.67
2019-02-04T19:56:42.456Z,13.17
2019-02-04T19:59:12.885Z,13.90
2019-02-04T20:01:45.269Z,13.67
2019-02-04T20:04:35.304Z,15.13
2019-02-04T20:07:05.633Z,18.63
2019-02-04T20:09:36.064Z,15.30
2019-02-04T20:12:06.074Z,14.27
2019-02-04T20:14:35.795Z,14.50
2019-02-04T20:17:08.816Z,14.30
2019-02-04T20:19:38.579Z,15.60
2019-02-04T20:22:08.979Z,15.07
2019-02-04T20:24:39.696Z,15.27
2019-02-04T20:27:10.152Z,15.60
2019-02-04T20:29:40.605Z,15.50
2019-02-04T20:32:11.060Z,15.37
2019-02-04T20:34:40.835Z,15.27
2019-02-04T20:37:10.600Z,15.57
2019-02-04T20:39:42.893Z,15.23
2019-02-04T20:42:13.612Z,16.50
2019-02-04T20:44:44.406Z,19.33
2019-02-04T20:47:16.293Z,26.87
2019-02-04T20:49:49.299Z,31.53
2019-02-04T20:52:20.701Z,31.67
2019-02-04T20:54:52.114Z,20.47
2019-02-04T20:57:22.607Z,13.73
2019-02-04T20:59:53.135Z,16.37
2019-02-04T21:02:23.792Z,16.20
2019-02-04T21:04:56.779Z,15.70
2019-02-04T21:07:38.452Z,15.17
2019-02-04T21:10:11.535Z,17.63
2019-02-04T21:12:41.959Z,21.90
2019-02-04T21:15:15.650Z,19.73
2019-02-04T21:17:47.864Z,19.83
2019-02-04T21:20:20.115Z,21.93
2019-02-04T21:22:50.891Z,17.93
2019-02-04T21:25:21.456Z,17.97
2019-02-04T21:27:52.272Z,16.33
2019-02-04T21:30:25.995Z,16.40
2019-02-04T21:32:56.648Z,16.20
2019-02-04T21:35:27.507Z,17.63
2019-02-04T21:37:57.931Z,15.37
2019-02-04T21:40:28.767Z,17.27
2019-02-04T21:42:59.192Z,18.10
2019-02-04T21:45:29.937Z,20.73
2019-02-04T21:48:00.352Z,19.97
2019-02-04T21:50:31.115Z,18.50
2019-02-04T21:53:01.552Z,18.57
2019-02-04T21:55:32.719Z,15.90
2019-02-04T21:58:03.512Z,16.77
2019-02-04T22:00:38.791Z,16.70
2019-02-04T22:03:09.405Z,18.23
2019-02-04T22:05:39.868Z,17.80
2019-02-04T22:08:10.295Z,18.67
2019-02-04T22:10:41.380Z,21.03
2019-02-04T22:13:11.219Z,22.70
2019-02-04T22:15:43.372Z,24.07
2019-02-04T22:18:14.432Z,24.47
2019-02-04T22:20:45.557Z,24.47
2019-02-04T22:23:15.963Z,25.83
2019-02-04T22:25:46.791Z,24.60
2019-02-04T22:28:17.211Z,24.23
2019-02-04T22:30:48.007Z,24.73
2019-02-04T22:33:18.423Z,22.17
2019-02-04T22:35:49.276Z,23.00
2019-02-04T22:38:19.043Z,23.77
2019-02-04T22:40:49.413Z,21.83
2019-02-04T22:43:20.344Z,21.27
2019-02-04T22:45:51.578Z,21.20
2019-02-04T22:48:22.827Z,20.83
2019-02-04T22:50:53.248Z,20.40
2019-02-04T22:53:23.587Z,21.53
2019-02-04T22:55:53.927Z,19.90
2019-02-04T22:58:24.383Z,19.57
2019-02-04T23:01:14.763Z,20.83
2019-02-04T23:03:47.045Z,20.43
2019-02-04T23:06:19.150Z,21.37
2019-02-04T23:08:49.611Z,20.80
2019-02-04T23:11:20.371Z,21.93
2019-02-04T23:13:50.827Z,21.47
2019-02-04T23:16:21.435Z,20.57
2019-02-04T23:18:51.890Z,19.80
2019-02-04T23:21:22.643Z,21.80
2019-02-04T23:23:53.507Z,20.57
2019-02-04T23:26:23.995Z,19.97
2019-02-04T23:28:56.803Z,20.87
2019-02-04T23:31:28.828Z,20.40
2019-02-04T23:33:59.567Z,19.70
2019-02-04T23:36:30.291Z,19.80
2019-02-04T23:39:00.811Z,20.37
2019-02-04T23:41:31.518Z,19.60
2019-02-04T23:44:02.336Z,20.30
2019-02-04T23:46:32.766Z,19.73
2019-02-04T23:49:03.211Z,19.00
2019-02-04T23:51:33.705Z,20.43
2019-02-04T23:54:04.598Z,18.27
2019-02-04T23:56:35.227Z,19.00
2019-02-04T23:59:06.171Z,19.77
